Time;durP1;ratioP1;P1;durP2;ratioP2;P2;SDS_P1;SDS_P2;PMS_P1;PMS_P2;Temp;Humidity;BMP_temperature;BMP_pressure;BME280_temperature;BME280_humidity;BME280_pressure;Samples;Min_cycle;Max_cycle;Signal;HPM_P1;HPM_P2
2023/12/06 00:01:32;;;;;;;1.40;0.63;;;2.30;99.90;;;;;;4974674;28;20194;-62
2023/12/06 00:03:59;;;;;;;4.90;0.90;;;2.30;99.90;;;;;;4988206;28;21079;-62
2023/12/06 00:06:24;;;;;;;1.43;0.80;;;2.30;99.90;;;;;;4982349;28;20214;-62
2023/12/06 00:08:52;;;;;;;1.97;0.83;;;2.30;99.90;;;;;;4980979;28;20913;-60
2023/12/06 00:11:20;;;;;;;1.57;0.70;;;2.30;99.90;;;;;;4982241;28;20640;-60
2023/12/06 00:13:46;;;;;;;1.23;0.63;;;2.20;99.90;;;;;;4978444;28;20432;-60
2023/12/06 00:16:11;;;;;;;1.40;0.70;;;2.20;99.90;;;;;;4975251;28;20424;-60
2023/12/06 00:18:37;;;;;;;1.20;0.50;;;2.30;99.90;;;;;;4986596;28;20239;-60
2023/12/06 00:21:03;;;;;;;1.70;0.77;;;2.20;99.90;;;;;;4986053;28;20243;-56
2023/12/06 00:23:28;;;;;;;1.53;0.80;;;2.30;99.90;;;;;;4973671;28;20368;-56
2023/12/06 00:25:54;;;;;;;1.20;0.60;;;2.30;99.90;;;;;;4980739;28;20250;-56
2023/12/06 00:28:19;;;;;;;1.30;0.63;;;2.20;99.90;;;;;;4978660;28;20219;-56
2023/12/06 00:30:45;;;;;;;1.23;0.47;;;2.20;99.90;;;;;;4974067;28;20211;-59
2023/12/06 00:33:10;;;;;;;1.10;0.50;;;2.20;99.90;;;;;;4974814;28;20202;-59
2023/12/06 00:35:36;;;;;;;1.40;0.87;;;2.20;99.90;;;;;;4987717;28;20208;-60
2023/12/06 00:38:01;;;;;;;1.13;0.57;;;2.20;99.90;;;;;;4987419;28;20637;-60
2023/12/06 00:40:27;;;;;;;1.10;0.50;;;2.20;99.90;;;;;;4993999;28;20190;-56
2023/12/06 00:42:53;;;;;;;1.30;0.80;;;2.20;99.90;;;;;;4988390;28;20234;-56
2023/12/06 00:45:18;;;;;;;2.77;0.90;;;2.20;99.90;;;;;;4973891;28;20452;-56
2023/12/06 00:47:44;;;;;;;1.73;0.60;;;2.20;99.90;;;;;;4986029;28;20230;-56
2023/12/06 00:50:09;;;;;;;1.00;0.40;;;2.20;99.90;;;;;;4985558;28;20251;-59
2023/12/06 00:52:35;;;;;;;1.20;0.50;;;2.30;99.90;;;;;;4974737;28;20211;-60
2023/12/06 00:55:00;;;;;;;1.20;0.50;;;2.20;99.90;;;;;;4980818;28;20183;-60
2023/12/06 00:57:26;;;;;;;1.40;0.60;;;2.20;99.90;;;;;;4993545;28;20263;-60
2023/12/06 00:59:51;;;;;;;1.50;0.60;;;2.20;99.90;;;;;;4980826;28;20191;-60
2023/12/06 01:02:17;;;;;;;3.53;0.80;;;2.30;99.90;;;;;;4980163;28;20239;-56
2023/12/06 01:04:42;;;;;;;1.30;0.70;;;2.20;99.90;;;;;;4973152;28;20279;-56
2023/12/06 01:07:08;;;;;;;1.70;0.70;;;2.20;99.90;;;;;;4985062;28;20198;-56
2023/12/06 01:09:33;;;;;;;1.93;1.17;;;2.20;99.90;;;;;;4979316;28;20204;-56
2023/12/06 01:11:59;;;;;;;2.70;0.80;;;2.20;99.90;;;;;;4984497;28;20267;-59
2023/12/06 01:14:24;;;;;;;1.93;0.80;;;2.20;99.90;;;;;;4993535;28;20652;-60
2023/12/06 01:16:50;;;;;;;1.60;0.70;;;2.20;99.90;;;;;;4992201;28;20238;-56
2023/12/06 01:19:16;;;;;;;1.70;0.90;;;2.20;99.90;;;;;;4977226;28;20211;-56
2023/12/06 01:21:42;;;;;;;1.50;0.67;;;2.20;99.90;;;;;;4973304;28;20204;-56
2023/12/06 01:24:08;;;;;;;1.87;0.63;;;2.20;99.90;;;;;;4992382;28;20431;-56
2023/12/06 01:26:33;;;;;;;1.10;0.70;;;2.20;99.90;;;;;;4979406;28;20204;-56
2023/12/06 01:29:02;;;;;;;1.33;0.60;;;2.20;99.90;;;;;;4978767;28;20723;-56
2023/12/06 01:31:27;;;;;;;1.40;0.67;;;2.20;99.90;;;;;;4980199;28;20183;-60
2023/12/06 01:33:53;;;;;;;1.13;0.57;;;2.30;99.90;;;;;;4981003;28;20418;-60
2023/12/06 01:36:18;;;;;;;1.40;0.90;;;2.30;99.90;;;;;;4993627;28;20187;-60
2023/12/06 01:38:44;;;;;;;1.80;1.13;;;2.20;99.90;;;;;;4976899;28;20543;-61
2023/12/06 01:41:12;;;;;;;2.30;0.90;;;2.20;99.90;;;;;;4977492;28;20196;-56
2023/12/06 01:43:43;;;;;;;1.80;0.80;;;2.20;99.90;;;;;;4974668;28;20544;-56
2023/12/06 01:46:09;;;;;;;2.00;0.63;;;2.20;99.90;;;;;;4977685;28;20470;-60
2023/12/06 01:48:36;;;;;;;1.80;0.97;;;2.10;99.90;;;;;;4978045;28;20419;-60
2023/12/06 01:51:02;;;;;;;1.43;0.70;;;2.20;99.90;;;;;;4978402;28;20572;-60
2023/12/06 01:53:27;;;;;;;1.87;0.80;;;2.20;99.90;;;;;;4978062;28;20459;-60
2023/12/06 01:55:53;;;;;;;2.20;1.17;;;2.20;99.90;;;;;;4978493;28;20920;-60
2023/12/06 01:58:19;;;;;;;3.07;1.20;;;2.20;99.90;;;;;;4990344;28;20180;-60
2023/12/06 02:00:45;;;;;;;1.47;0.80;;;2.20;99.90;;;;;;4991088;28;20246;-60
2023/12/06 02:03:11;;;;;;;1.53;0.90;;;2.20;99.90;;;;;;4989722;28;20466;-60
2023/12/06 02:05:37;;;;;;;1.83;0.93;;;2.20;99.90;;;;;;4977304;28;20419;-56
2023/12/06 02:08:05;;;;;;;1.47;0.77;;;2.20;99.90;;;;;;4976015;28;20977;-56
2023/12/06 02:10:31;;;;;;;2.90;1.07;;;2.20;99.90;;;;;;4977553;28;20219;-60
2023/12/06 02:12:56;;;;;;;1.30;0.60;;;2.20;99.90;;;;;;4979796;28;20427;-60
2023/12/06 02:15:22;;;;;;;1.50;0.90;;;2.20;99.90;;;;;;4977675;28;20649;-60
2023/12/06 02:17:49;;;;;;;1.50;0.83;;;2.20;99.90;;;;;;4985177;28;20288;-60
2023/12/06 02:20:15;;;;;;;1.23;0.60;;;2.20;99.90;;;;;;4990050;28;20279;-56
2023/12/06 02:22:41;;;;;;;1.33;0.77;;;2.30;99.90;;;;;;4976118;28;20989;-56
2023/12/06 02:25:14;;;;;;;1.50;0.70;;;2.30;99.90;;;;;;4990250;28;20637;-56
2023/12/06 02:27:41;;;;;;;1.10;0.50;;;2.30;99.90;;;;;;4985462;28;20538;-56
2023/12/06 02:30:09;;;;;;;1.47;0.70;;;2.30;99.90;;;;;;4988920;28;20466;-56
2023/12/06 02:32:35;;;;;;;2.07;0.70;;;2.30;99.90;;;;;;4975906;28;20420;-56
2023/12/06 02:35:03;;;;;;;2.90;1.47;;;2.30;99.90;;;;;;4988737;28;20467;-59
2023/12/06 02:37:29;;;;;;;1.10;0.60;;;2.40;99.90;;;;;;4977388;28;20219;-60
2023/12/06 02:39:56;;;;;;;1.10;0.60;;;2.40;99.90;;;;;;4977183;28;20924;-60
2023/12/06 02:42:22;;;;;;;1.10;0.60;;;2.40;99.90;;;;;;4988479;28;20435;-60
2023/12/06 02:44:47;;;;;;;1.93;0.70;;;2.40;99.90;;;;;;4979941;28;20949;-60
2023/12/06 02:47:14;;;;;;;1.10;0.50;;;2.30;99.90;;;;;;4977244;28;20565;-60
2023/12/06 02:49:39;;;;;;;1.10;0.50;;;2.30;99.90;;;;;;4989487;28;20200;-60
2023/12/06 02:52:05;;;;;;;1.20;0.60;;;2.30;99.90;;;;;;4975858;28;20424;-55
2023/12/06 02:54:31;;;;;;;4.23;0.57;;;2.30;99.90;;;;;;4975416;28;20184;-56
2023/12/06 02:56:56;;;;;;;1.10;0.53;;;2.30;99.90;;;;;;4976546;28;21156;-60
2023/12/06 02:59:22;;;;;;;1.40;0.67;;;2.40;99.90;;;;;;4976638;28;20196;-60
2023/12/06 03:01:47;;;;;;;1.40;0.80;;;2.40;99.90;;;;;;4976752;28;20259;-60
2023/12/06 03:04:13;;;;;;;1.10;0.60;;;2.30;99.90;;;;;;4982023;28;20185;-60
2023/12/06 03:06:39;;;;;;;1.37;0.80;;;2.30;99.90;;;;;;4976961;28;20196;-60
2023/12/06 03:09:05;;;;;;;1.40;0.60;;;2.30;99.90;;;;;;4976758;28;20224;-60
2023/12/06 03:11:30;;;;;;;1.07;0.40;;;2.30;99.90;;;;;;4981751;28;20172;-60
2023/12/06 03:13:56;;;;;;;3.20;0.90;;;2.30;99.90;;;;;;4995605;28;20435;-60
2023/12/06 03:16:21;;;;;;;1.00;0.40;;;2.30;99.90;;;;;;4995384;28;20609;-56
2023/12/06 03:18:47;;;;;;;1.33;0.60;;;2.30;99.90;;;;;;4991799;28;20203;-56
2023/12/06 03:21:12;;;;;;;1.73;0.60;;;2.30;99.90;;;;;;4974815;28;20220;-56
2023/12/06 03:23:38;;;;;;;1.30;0.60;;;2.30;99.90;;;;;;4977955;28;20184;-56
2023/12/06 03:26:03;;;;;;;1.07;0.50;;;2.40;99.90;;;;;;4995031;28;20215;-59
2023/12/06 03:28:29;;;;;;;1.10;0.50;;;2.40;99.90;;;;;;4980473;28;20189;-60
2023/12/06 03:30:54;;;;;;;1.60;0.67;;;2.30;99.90;;;;;;4984681;28;20212;-60
2023/12/06 03:33:20;;;;;;;1.23;0.50;;;2.30;99.90;;;;;;4982862;28;20227;-60
2023/12/06 03:35:45;;;;;;;1.20;0.67;;;2.40;99.90;;;;;;4987516;28;20193;-60
2023/12/06 03:38:11;;;;;;;2.13;0.60;;;2.40;99.90;;;;;;4978085;28;20181;-61
2023/12/06 03:40:36;;;;;;;1.53;0.60;;;2.40;99.90;;;;;;4987591;28;20184;-61
2023/12/06 03:43:01;;;;;;;1.10;0.50;;;2.40;99.90;;;;;;4978126;28;20899;-60
2023/12/06 03:45:27;;;;;;;1.57;0.70;;;2.40;99.90;;;;;;4976186;28;20259;-56
2023/12/06 03:47:52;;;;;;;2.13;0.83;;;2.50;99.90;;;;;;4988719;28;20196;-56
2023/12/06 03:50:18;;;;;;;1.50;0.50;;;2.40;99.90;;;;;;4985958;28;20218;-60
2023/12/06 03:52:43;;;;;;;1.00;0.40;;;2.40;99.90;;;;;;4975898;28;20222;-62
2023/12/06 03:55:11;;;;;;;1.20;0.50;;;2.40;99.90;;;;;;4976060;28;20188;-62
2023/12/06 03:57:37;;;;;;;1.10;0.40;;;2.40;99.90;;;;;;4975655;28;20196;-62
2023/12/06 04:00:04;;;;;;;1.10;0.50;;;2.40;99.90;;;;;;4975574;28;20479;-62
2023/12/06 04:02:29;;;;;;;1.50;0.70;;;2.40;99.90;;;;;;4976103;28;20184;-62
2023/12/06 04:04:56;;;;;;;1.20;0.70;;;2.30;99.90;;;;;;4975532;28;20431;-62
2023/12/06 04:07:21;;;;;;;4.07;0.87;;;2.40;99.90;;;;;;4975936;28;20191;-61
2023/12/06 04:09:47;;;;;;;2.03;1.20;;;2.40;99.90;;;;;;4983101;28;20463;-61
2023/12/06 04:12:14;;;;;;;1.90;0.93;;;2.30;99.90;;;;;;4983226;28;20184;-61
2023/12/06 04:14:39;;;;;;;1.40;1.00;;;2.30;99.90;;;;;;4983926;28;20168;-61
2023/12/06 04:17:05;;;;;;;1.60;1.00;;;2.30;99.90;;;;;;4989131;28;20498;-57
2023/12/06 04:19:31;;;;;;;1.50;0.90;;;2.30;99.90;;;;;;4984874;28;20514;-57
2023/12/06 04:21:56;;;;;;;1.73;0.67;;;2.20;99.90;;;;;;4975182;28;20423;-62
2023/12/06 04:24:22;;;;;;;1.83;0.70;;;2.30;99.90;;;;;;4975314;28;20196;-62
2023/12/06 04:26:47;;;;;;;1.23;0.80;;;2.30;99.90;;;;;;4975447;28;20287;-62
2023/12/06 04:29:12;;;;;;;1.63;0.60;;;2.30;99.90;;;;;;4980062;28;20215;-62
2023/12/06 04:31:38;;;;;;;1.00;0.50;;;2.30;99.90;;;;;;4993669;28;20186;-62
2023/12/06 04:34:03;;;;;;;1.10;0.60;;;2.30;99.90;;;;;;4975173;28;20653;-61
2023/12/06 04:36:29;;;;;;;1.10;0.50;;;2.40;99.90;;;;;;4986879;28;20245;-57
2023/12/06 04:38:54;;;;;;;1.13;0.57;;;2.30;99.90;;;;;;4973435;28;20531;-57
2023/12/06 04:41:20;;;;;;;1.40;0.80;;;2.40;99.90;;;;;;4978198;28;20226;-61
2023/12/06 04:43:45;;;;;;;1.60;0.60;;;2.40;99.90;;;;;;4986245;28;20211;-61
2023/12/06 04:46:11;;;;;;;1.30;0.50;;;2.40;99.90;;;;;;4974454;28;20255;-56
2023/12/06 04:48:37;;;;;;;1.30;0.60;;;2.40;99.90;;;;;;4978908;28;20187;-57
2023/12/06 04:51:02;;;;;;;1.10;0.50;;;2.40;99.90;;;;;;4991791;28;20683;-57
2023/12/06 04:53:28;;;;;;;1.47;0.60;;;2.50;99.90;;;;;;4973167;28;20279;-57
2023/12/06 04:55:53;;;;;;;1.20;0.50;;;2.50;99.90;;;;;;4974255;28;20196;-61
2023/12/06 04:58:19;;;;;;;1.20;0.50;;;2.40;99.90;;;;;;4974736;28;20619;-61
2023/12/06 05:00:44;;;;;;;1.60;0.60;;;2.50;99.90;;;;;;4974707;28;20289;-62
2023/12/06 05:03:10;;;;;;;1.10;0.60;;;2.50;99.90;;;;;;4974931;28;20188;-62
2023/12/06 05:05:36;;;;;;;1.10;0.50;;;2.40;99.90;;;;;;4988220;28;20184;-62
2023/12/06 05:08:01;;;;;;;3.40;0.50;;;2.50;99.90;;;;;;4994185;28;20227;-62
2023/12/06 05:10:26;;;;;;;1.30;0.60;;;2.50;99.90;;;;;;4994286;28;20246;-62
2023/12/06 05:12:52;;;;;;;1.90;0.70;;;2.50;99.90;;;;;;4976861;28;20188;-62
2023/12/06 05:15:17;;;;;;;1.20;0.47;;;2.50;99.90;;;;;;4974581;28;20662;-62
2023/12/06 05:17:43;;;;;;;1.67;0.50;;;2.60;99.90;;;;;;4974704;28;20211;-62
2023/12/06 05:20:10;;;;;;;2.37;0.60;;;2.60;99.90;;;;;;4974947;28;20740;-57
2023/12/06 05:22:36;;;;;;;1.47;0.70;;;2.60;99.90;;;;;;4984959;28;20224;-57
2023/12/06 05:25:03;;;;;;;1.30;0.70;;;2.40;99.90;;;;;;4973618;28;20486;-62
2023/12/06 05:27:29;;;;;;;1.07;0.50;;;2.50;99.90;;;;;;4986232;28;20185;-62
2023/12/06 05:29:54;;;;;;;1.20;0.53;;;2.60;99.90;;;;;;4974601;28;20486;-62
2023/12/06 05:32:20;;;;;;;2.23;0.67;;;2.50;99.90;;;;;;4972809;28;20223;-57
2023/12/06 05:34:45;;;;;;;1.20;0.50;;;2.50;99.90;;;;;;4972595;28;20180;-57
2023/12/06 05:37:11;;;;;;;1.20;0.60;;;2.50;99.90;;;;;;4974309;28;20212;-61
2023/12/06 05:39:36;;;;;;;1.00;0.50;;;2.50;99.90;;;;;;4974662;28;20181;-61
2023/12/06 05:42:03;;;;;;;1.20;0.50;;;2.50;99.90;;;;;;4974066;28;20255;-61
2023/12/06 05:44:30;;;;;;;1.10;0.50;;;2.50;99.90;;;;;;4974122;28;20180;-61
2023/12/06 05:46:55;;;;;;;1.37;0.70;;;2.40;99.90;;;;;;4979656;28;20431;-57
2023/12/06 05:49:21;;;;;;;1.80;0.80;;;2.40;99.90;;;;;;4989750;28;20465;-57
2023/12/06 05:51:46;;;;;;;2.60;0.70;;;2.40;99.90;;;;;;4993173;28;20175;-61
2023/12/06 05:54:12;;;;;;;2.60;0.80;;;2.40;99.90;;;;;;4980746;28;20263;-61
2023/12/06 05:56:37;;;;;;;1.40;0.70;;;2.30;99.90;;;;;;4986835;28;20519;-62
2023/12/06 05:59:03;;;;;;;1.40;0.50;;;2.30;99.90;;;;;;4974216;28;20191;-62
2023/12/06 06:01:28;;;;;;;2.20;0.70;;;2.30;99.90;;;;;;4974358;28;20220;-61
2023/12/06 06:03:54;;;;;;;1.67;0.70;;;2.40;99.90;;;;;;4987768;28;20687;-61
2023/12/06 06:06:20;;;;;;;1.50;0.70;;;2.30;99.90;;;;;;4985852;28;20181;-61
2023/12/06 06:08:45;;;;;;;1.20;0.63;;;2.30;99.90;;;;;;4974393;28;20187;-61
2023/12/06 06:11:11;;;;;;;1.30;0.70;;;2.30;99.90;;;;;;4979143;28;21103;-62
2023/12/06 06:13:36;;;;;;;3.60;0.90;;;2.20;99.90;;;;;;4977036;28;20211;-62
2023/12/06 06:16:02;;;;;;;1.70;0.60;;;2.20;99.90;;;;;;4974362;28;20665;-62
2023/12/06 06:18:27;;;;;;;1.97;0.90;;;2.20;99.90;;;;;;4973902;28;20188;-62
2023/12/06 06:20:53;;;;;;;1.50;0.70;;;2.30;99.90;;;;;;4973881;28;20240;-62
2023/12/06 06:23:18;;;;;;;2.70;1.00;;;2.20;99.90;;;;;;4974747;28;20184;-62
2023/12/06 06:25:44;;;;;;;3.60;1.20;;;2.20;99.90;;;;;;4977656;28;20625;-61
2023/12/06 06:28:09;;;;;;;1.73;0.90;;;2.20;99.90;;;;;;4990034;28;20287;-61
2023/12/06 06:30:35;;;;;;;3.33;1.03;;;2.20;99.90;;;;;;4977979;28;20679;-61
2023/12/06 06:33:00;;;;;;;1.57;0.80;;;2.20;99.90;;;;;;4977147;28;20649;-61
2023/12/06 06:35:26;;;;;;;1.50;1.07;;;2.20;99.90;;;;;;4977060;28;20192;-57
2023/12/06 06:37:51;;;;;;;1.57;0.97;;;2.40;99.90;;;;;;4987802;28;20191;-57
2023/12/06 06:40:17;;;;;;;3.17;1.63;;;2.30;99.90;;;;;;4995010;28;20670;-57
2023/12/06 06:42:42;;;;;;;4.23;1.70;;;2.30;99.90;;;;;;4982326;28;20273;-57
2023/12/06 06:45:09;;;;;;;2.03;1.23;;;2.30;99.90;;;;;;4981062;28;20567;-60
2023/12/06 06:47:36;;;;;;;2.93;1.07;;;2.40;99.90;;;;;;4996548;28;20179;-61
2023/12/06 06:50:04;;;;;;;2.27;1.13;;;2.40;99.90;;;;;;4994637;28;20950;-62
2023/12/06 06:52:30;;;;;;;3.00;1.00;;;2.30;99.90;;;;;;4983807;28;20877;-62
2023/12/06 06:54:56;;;;;;;4.67;2.10;;;2.30;99.90;;;;;;4977252;28;20454;-62
2023/12/06 06:57:22;;;;;;;6.37;2.27;;;2.40;99.90;;;;;;4974800;28;20180;-57
2023/12/06 06:59:47;;;;;;;5.03;1.90;;;2.30;99.90;;;;;;4984393;28;20848;-57
2023/12/06 07:02:13;;;;;;;5.13;1.30;;;2.40;99.90;;;;;;4981950;28;20189;-57
2023/12/06 07:04:38;;;;;;;3.10;1.30;;;2.30;99.90;;;;;;4973989;28;20181;-57
2023/12/06 07:07:04;;;;;;;3.87;0.90;;;2.40;99.90;;;;;;4976721;28;20663;-61
2023/12/06 07:09:29;;;;;;;2.70;0.73;;;2.40;99.90;;;;;;4981512;28;20215;-61
2023/12/06 07:11:55;;;;;;;3.53;0.90;;;2.40;99.90;;;;;;4984462;28;20195;-61
2023/12/06 07:14:21;;;;;;;3.93;1.43;;;2.40;99.90;;;;;;4995929;28;20199;-61
2023/12/06 07:16:46;;;;;;;2.80;0.80;;;2.50;99.90;;;;;;4982050;28;20189;-57
2023/12/06 07:19:12;;;;;;;2.00;1.00;;;2.50;99.90;;;;;;4978939;28;20271;-57
2023/12/06 07:21:38;;;;;;;2.80;0.60;;;2.50;99.90;;;;;;4976026;28;20644;-61
2023/12/06 07:24:04;;;;;;;1.50;0.90;;;2.50;99.90;;;;;;4976820;28;20420;-61
2023/12/06 07:26:29;;;;;;;1.40;0.87;;;2.50;99.90;;;;;;4976751;28;20180;-63
2023/12/06 07:28:55;;;;;;;1.53;0.73;;;2.50;99.90;;;;;;4976741;28;20196;-62
2023/12/06 07:31:20;;;;;;;2.17;0.80;;;2.50;99.90;;;;;;4976778;28;20187;-61
2023/12/06 07:33:47;;;;;;;1.80;0.90;;;2.50;99.90;;;;;;4976783;28;20235;-63
2023/12/06 07:36:13;;;;;;;1.87;0.60;;;2.50;99.90;;;;;;4975945;28;20609;-62
2023/12/06 07:38:39;;;;;;;2.07;0.80;;;2.40;99.90;;;;;;4976778;28;20475;-62
2023/12/06 07:41:04;;;;;;;1.20;0.70;;;2.40;99.90;;;;;;4975668;28;20196;-57
2023/12/06 07:43:30;;;;;;;1.73;0.90;;;2.50;99.90;;;;;;4974232;28;20255;-57
2023/12/06 07:45:55;;;;;;;1.77;1.00;;;2.50;99.90;;;;;;4973677;28;20196;-57
2023/12/06 07:48:21;;;;;;;2.47;1.17;;;2.50;99.90;;;;;;4977569;28;20205;-56
2023/12/06 07:50:47;;;;;;;1.40;0.90;;;2.50;99.90;;;;;;4982678;28;20200;-61
2023/12/06 07:53:13;;;;;;;1.50;1.00;;;2.50;99.90;;;;;;4989371;28;20478;-61
2023/12/06 07:55:40;;;;;;;1.87;1.07;;;2.60;99.90;;;;;;4975977;28;20204;-57
2023/12/06 07:58:06;;;;;;;1.93;1.07;;;2.60;99.90;;;;;;4974021;28;20420;-57
2023/12/06 08:00:33;;;;;;;2.50;1.17;;;2.60;99.90;;;;;;4974789;28;20827;-61
2023/12/06 08:02:59;;;;;;;1.40;0.93;;;2.60;99.90;;;;;;4977004;28;20192;-61
2023/12/06 08:05:24;;;;;;;2.40;1.40;;;2.60;99.90;;;;;;4976042;28;20506;-63
2023/12/06 08:07:50;;;;;;;2.80;1.13;;;2.50;99.90;;;;;;4976232;28;20227;-62
2023/12/06 08:10:22;;;;;;;7.33;1.30;;;2.50;99.90;;;;;;4976009;28;20209;-62
2023/12/06 08:12:49;;;;;;;2.00;1.03;;;2.60;99.90;;;;;;4969977;28;20208;-63
2023/12/06 08:15:14;;;;;;;2.20;1.10;;;2.50;99.90;;;;;;4975330;28;20502;-62
2023/12/06 08:17:41;;;;;;;1.70;0.97;;;2.50;99.90;;;;;;4975557;28;20918;-62
2023/12/06 08:20:08;;;;;;;2.20;0.87;;;2.60;99.90;;;;;;4975363;28;20227;-62
2023/12/06 08:22:33;;;;;;;2.50;1.07;;;2.70;99.90;;;;;;4975395;28;20416;-62
2023/12/06 08:24:59;;;;;;;1.90;1.13;;;2.80;99.90;;;;;;4975520;28;20428;-62
2023/12/06 08:27:29;;;;;;;3.50;1.37;;;2.90;99.90;;;;;;4972822;28;20637;-56
2023/12/06 08:30:00;;;;;;;2.20;1.00;;;3.00;99.90;;;;;;4972098;28;20208;-56
2023/12/06 08:32:26;;;;;;;1.60;1.20;;;2.90;99.90;;;;;;4973191;28;20514;-57
2023/12/06 08:34:52;;;;;;;1.80;1.40;;;3.00;99.90;;;;;;4973462;28;20432;-57
2023/12/06 08:37:18;;;;;;;4.27;1.57;;;3.00;99.90;;;;;;4973517;28;20434;-57
2023/12/06 08:39:44;;;;;;;3.00;1.53;;;2.90;99.90;;;;;;4973455;28;20944;-56
2023/12/06 08:42:12;;;;;;;4.73;1.70;;;3.10;99.90;;;;;;4979677;28;20191;-61
2023/12/06 08:44:38;;;;;;;5.83;2.70;;;3.20;99.90;;;;;;4979668;28;20420;-61
2023/12/06 08:47:03;;;;;;;3.97;1.87;;;3.20;99.90;;;;;;4973051;28;20453;-57
2023/12/06 08:49:29;;;;;;;1.97;1.40;;;3.20;99.90;;;;;;4971687;28;20208;-57
2023/12/06 08:51:55;;;;;;;2.83;1.90;;;3.30;99.90;;;;;;4972945;28;20588;-57
2023/12/06 08:54:20;;;;;;;7.70;2.50;;;3.30;99.90;;;;;;4973030;28;20180;-57
2023/12/06 08:56:46;;;;;;;3.37;2.27;;;3.30;99.90;;;;;;4969598;28;20438;-57
2023/12/06 08:59:11;;;;;;;4.20;2.30;;;3.40;99.90;;;;;;4971294;28;20187;-57
2023/12/06 09:01:37;;;;;;;4.10;1.90;;;3.40;99.90;;;;;;4973244;28;20216;-62
2023/12/06 09:04:03;;;;;;;4.33;2.30;;;3.40;99.90;;;;;;4973619;28;20275;-62
2023/12/06 09:06:28;;;;;;;7.43;3.47;;;3.50;99.90;;;;;;4974728;28;20427;-62
2023/12/06 09:08:54;;;;;;;5.90;2.90;;;3.50;99.90;;;;;;4974440;28;20229;-62
2023/12/06 09:11:20;;;;;;;4.50;2.43;;;3.50;99.90;;;;;;4974527;28;20214;-63
2023/12/06 09:13:47;;;;;;;3.03;1.57;;;3.50;99.90;;;;;;4974381;28;20177;-63
2023/12/06 09:16:12;;;;;;;3.20;2.23;;;3.50;99.90;;;;;;4974713;28;20632;-63
2023/12/06 09:18:38;;;;;;;3.50;2.13;;;3.50;99.90;;;;;;4974370;28;20955;-62
2023/12/06 09:21:04;;;;;;;7.00;3.00;;;3.50;99.90;;;;;;4988953;28;20219;-62
2023/12/06 09:23:31;;;;;;;3.43;2.40;;;3.60;99.90;;;;;;4992084;28;20223;-62
2023/12/06 09:25:56;;;;;;;5.03;2.60;;;3.60;99.90;;;;;;4973888;28;20471;-62
2023/12/06 09:28:22;;;;;;;3.93;2.50;;;3.60;99.90;;;;;;4987246;28;21077;-62
2023/12/06 09:30:47;;;;;;;3.20;2.27;;;3.50;99.90;;;;;;4973400;28;20607;-57
2023/12/06 09:33:13;;;;;;;5.30;2.90;;;3.50;99.90;;;;;;4970812;28;20642;-57
2023/12/06 09:35:40;;;;;;;5.60;3.13;;;3.50;99.90;;;;;;4971354;28;20188;-57
2023/12/06 09:38:05;;;;;;;5.30;3.40;;;3.40;99.90;;;;;;4970911;28;20215;-57
2023/12/06 09:40:31;;;;;;;5.00;2.80;;;3.50;99.90;;;;;;4971668;28;20431;-63
2023/12/06 09:43:01;;;;;;;3.27;2.47;;;3.40;99.90;;;;;;4988766;28;20490;-63
2023/12/06 09:45:27;;;;;;;5.63;2.77;;;3.50;99.90;;;;;;4984708;28;20475;-65
2023/12/06 09:47:54;;;;;;;5.33;3.03;;;3.50;99.90;;;;;;4974659;28;20428;-63
2023/12/06 09:50:20;;;;;;;6.40;3.23;;;3.40;99.90;;;;;;4972542;28;20199;-63
2023/12/06 09:52:50;;;;;;;4.07;2.60;;;3.40;99.90;;;;;;4988976;28;20433;-63
2023/12/06 09:55:18;;;;;;;5.07;3.53;;;3.40;99.90;;;;;;4954894;28;20613;-63
2023/12/06 09:57:46;;;;;;;7.60;3.10;;;3.40;99.90;;;;;;4961164;28;20506;-63
2023/12/06 10:00:13;;;;;;;6.50;4.17;;;3.60;99.90;;;;;;4997345;28;21193;-63
2023/12/06 10:02:57;;;;;;;4.90;3.27;;;3.50;99.90;;;;;;4994071;28;20427;-63
2023/12/06 10:05:23;;;;;;;4.53;2.87;;;3.50;99.90;;;;;;4977781;28;20747;-57
2023/12/06 10:07:49;;;;;;;7.93;3.30;;;3.50;99.90;;;;;;4995309;28;20427;-57
2023/12/06 10:10:19;;;;;;;5.40;3.23;;;3.40;99.90;;;;;;4974462;28;20196;-64
2023/12/06 10:12:57;;;;;;;4.07;3.00;;;3.50;99.90;;;;;;4990680;28;20420;-63
2023/12/06 10:15:24;;;;;;;6.60;3.50;;;3.50;99.90;;;;;;4979604;28;20735;-63
2023/12/06 10:17:50;;;;;;;6.30;3.50;;;3.50;99.90;;;;;;4997319;28;20502;-63
2023/12/06 10:20:16;;;;;;;5.30;3.20;;;3.40;99.90;;;;;;4995462;28;20959;-63
2023/12/06 10:22:44;;;;;;;7.10;3.70;;;3.60;99.90;;;;;;4977887;28;20518;-62
2023/12/06 10:25:10;;;;;;;4.73;2.90;;;3.40;99.90;;;;;;4979517;28;20430;-57
2023/12/06 10:27:36;;;;;;;7.87;3.33;;;3.40;99.90;;;;;;4986669;28;20908;-57
2023/12/06 10:30:05;;;;;;;10.90;2.87;;;3.40;99.90;;;;;;4975839;28;20550;-57
2023/12/06 10:32:32;;;;;;;8.20;4.43;;;3.30;99.90;;;;;;4977574;28;20243;-63
2023/12/06 10:35:05;;;;;;;5.73;3.40;;;3.30;99.90;;;;;;4977764;28;20467;-63
2023/12/06 10:37:32;;;;;;;5.87;3.77;;;3.30;99.90;;;;;;4977941;28;20850;-63
2023/12/06 10:40:10;;;;;;;6.10;3.60;;;3.30;99.90;;;;;;4977730;28;20455;-63
2023/12/06 10:42:36;;;;;;;6.67;3.77;;;3.30;99.90;;;;;;4977329;28;20755;-63
2023/12/06 10:45:03;;;;;;;5.93;3.30;;;3.40;99.90;;;;;;4995527;28;20422;-61
2023/12/06 10:47:30;;;;;;;4.93;3.23;;;3.30;99.90;;;;;;4985057;28;20420;-62
2023/12/06 10:49:56;;;;;;;6.10;2.90;;;3.30;99.90;;;;;;4977173;28;20474;-63
2023/12/06 10:52:23;;;;;;;5.87;3.23;;;3.30;99.90;;;;;;4977367;28;20427;-63
2023/12/06 10:54:50;;;;;;;6.43;3.70;;;3.30;99.90;;;;;;4977118;28;20420;-63
2023/12/06 10:57:17;;;;;;;6.00;3.50;;;3.30;99.90;;;;;;4977284;28;20436;-63
2023/12/06 10:59:45;;;;;;;4.50;3.30;;;3.30;99.90;;;;;;4977259;28;20430;-63
2023/12/06 11:02:11;;;;;;;6.57;4.30;;;3.30;99.90;;;;;;4975385;28;20420;-57
2023/12/06 11:04:41;;;;;;;8.63;3.80;;;3.30;99.90;;;;;;4971180;28;20416;-57
2023/12/06 11:07:35;;;;;;;6.60;2.93;;;3.30;99.90;;;;;;4974684;28;20199;-57
2023/12/06 11:10:31;;;;;;;4.97;2.87;;;3.20;99.90;;;;;;4973609;28;20459;-57
2023/12/06 11:13:08;;;;;;;5.23;3.27;;;3.30;99.90;;;;;;4976862;28;20519;-63
2023/12/06 11:15:42;;;;;;;5.03;2.90;;;3.30;99.90;;;;;;4977190;28;20929;-63
2023/12/06 11:18:23;;;;;;;7.90;3.93;;;3.30;99.90;;;;;;4977362;28;20428;-63
2023/12/06 11:20:49;;;;;;;7.93;4.43;;;3.20;99.90;;;;;;4976298;28;20519;-57
2023/12/06 11:23:21;;;;;;;5.13;3.47;;;3.10;99.90;;;;;;4975154;28;20806;-57
2023/12/06 11:25:49;;;;;;;6.00;3.73;;;3.20;99.90;;;;;;4963353;28;20569;-62
2023/12/06 11:28:17;;;;;;;4.90;3.37;;;3.20;99.90;;;;;;4977366;28;20438;-62
2023/12/06 11:30:53;;;;;;;6.03;3.80;;;3.20;99.90;;;;;;4988494;28;20609;-57
2023/12/06 11:33:19;;;;;;;8.73;4.37;;;3.10;99.90;;;;;;4974575;28;20420;-57
2023/12/06 11:35:49;;;;;;;10.13;4.90;;;3.10;99.90;;;;;;4975224;28;20431;-61
2023/12/06 11:38:15;;;;;;;7.40;3.83;;;3.20;99.90;;;;;;4979279;28;20183;-63
2023/12/06 11:40:52;;;;;;;6.80;3.60;;;3.20;99.90;;;;;;4986457;28;20451;-63
2023/12/06 11:43:19;;;;;;;8.33;4.60;;;3.20;99.90;;;;;;4980533;28;20199;-63
2023/12/06 11:45:46;;;;;;;7.73;3.80;;;3.20;99.90;;;;;;4995832;28;20923;-63
2023/12/06 11:48:13;;;;;;;8.10;4.03;;;3.20;99.90;;;;;;4978003;28;20447;-63
2023/12/06 11:50:45;;;;;;;9.03;3.80;;;3.20;99.90;;;;;;4976369;28;20944;-61
2023/12/06 11:53:12;;;;;;;6.60;2.83;;;3.10;99.90;;;;;;4976066;28;20443;-62
2023/12/06 11:55:40;;;;;;;8.60;4.00;;;3.10;99.90;;;;;;4961268;28;20784;-57
2023/12/06 11:58:12;;;;;;;7.40;3.50;;;3.20;99.90;;;;;;4955552;28;20824;-57
2023/12/06 12:00:44;;;;;;;4.73;3.60;;;3.10;99.90;;;;;;4974740;28;20439;-62
2023/12/06 12:03:11;;;;;;;7.80;3.33;;;3.20;99.90;;;;;;4975932;28;20415;-62
2023/12/06 12:05:37;;;;;;;7.30;3.93;;;3.20;99.90;;;;;;4976055;28;20452;-62
2023/12/06 12:08:03;;;;;;;7.13;3.43;;;3.10;99.90;;;;;;4977389;28;20435;-63
2023/12/06 12:10:30;;;;;;;5.20;3.20;;;3.10;99.90;;;;;;4977406;28;20471;-62
2023/12/06 12:12:56;;;;;;;6.80;4.30;;;3.00;99.90;;;;;;4975724;28;20185;-63
2023/12/06 12:15:27;;;;;;;9.20;4.63;;;3.00;99.90;;;;;;4990461;28;20482;-63
2023/12/06 12:17:53;;;;;;;7.40;4.40;;;3.00;99.90;;;;;;4986651;28;20474;-63
2023/12/06 12:20:19;;;;;;;6.13;3.00;;;3.00;99.90;;;;;;4992457;28;20474;-57
2023/12/06 12:22:50;;;;;;;5.70;2.83;;;2.90;99.90;;;;;;4973469;28;20423;-57
2023/12/06 12:25:17;;;;;;;5.30;3.10;;;2.90;99.90;;;;;;4974304;28;20467;-61
2023/12/06 12:27:46;;;;;;;7.40;4.23;;;3.00;99.90;;;;;;4984938;28;20451;-62
2023/12/06 12:30:13;;;;;;;5.33;3.73;;;3.00;99.90;;;;;;4991921;28;20530;-62
2023/12/06 12:32:43;;;;;;;10.00;5.17;;;3.00;99.90;;;;;;4975122;28;20424;-62
2023/12/06 12:35:09;;;;;;;6.60;3.93;;;3.00;99.90;;;;;;4979026;28;20447;-62
2023/12/06 12:37:35;;;;;;;8.07;3.67;;;2.90;99.90;;;;;;4984624;28;20877;-62
2023/12/06 12:40:01;;;;;;;7.67;4.53;;;2.90;99.90;;;;;;4976152;28;20454;-62
2023/12/06 12:42:27;;;;;;;7.37;4.30;;;2.90;99.90;;;;;;4972976;28;20692;-57
2023/12/06 12:44:53;;;;;;;6.47;4.33;;;2.90;99.90;;;;;;4973421;28;20744;-57
2023/12/06 12:47:20;;;;;;;9.33;4.83;;;2.90;99.90;;;;;;4985469;28;20426;-62
2023/12/06 12:49:45;;;;;;;6.70;4.13;;;2.90;99.90;;;;;;4994404;28;20499;-62
2023/12/06 12:52:11;;;;;;;8.73;4.33;;;3.00;99.90;;;;;;4988085;28;20477;-63
2023/12/06 12:54:39;;;;;;;7.83;4.00;;;3.00;99.90;;;;;;4977206;28;20222;-63